Time;durP1;ratioP1;P1;durP2;ratioP2;P2;SDS_P1;SDS_P2;PMS_P1;PMS_P2;Temp;Humidity;BMP_temperature;BMP_pressure;BME280_temperature;BME280_humidity;BME280_pressure;Samples;Min_cycle;Max_cycle;Signal;HPM_P1;HPM_P2
2022/09/08 00:00:46;;;;;;;9.13;3.03;;;;;;;21.50;56.92;100782.00;5054404;28;20111;-79
2022/09/08 00:03:15;;;;;;;5.65;2.83;;;;;;;21.68;56.93;100802.84;5072639;28;20036;-80
2022/09/08 00:05:55;;;;;;;7.60;3.00;;;;;;;21.57;57.84;100794.28;5072415;28;20394;-80
2022/09/08 00:08:21;;;;;;;10.13;3.33;;;;;;;21.56;58.73;100808.66;5072361;28;20094;-80
2022/09/08 00:10:53;;;;;;;10.70;3.30;;;;;;;21.43;59.99;100807.34;5074864;28;20043;-80
2022/09/08 00:13:19;;;;;;;;;;;;;;;21.61;57.38;100819.25;5076676;28;20032;-80
2022/09/08 00:15:45;;;;;;;5.95;2.88;;;;;;;21.33;59.93;100822.06;5076216;28;19918;-80
2022/09/08 00:18:11;;;;;;;11.32;3.67;;;;;;;21.29;61.18;100837.38;5075746;28;20036;-85
2022/09/08 00:20:36;;;;;;;8.18;3.38;;;;;;;21.08;62.85;100830.88;5075805;28;20031;-81
2022/09/08 00:23:02;;;;;;;7.72;3.20;;;;;;;21.00;63.04;100831.13;5076023;28;20111;-82
2022/09/08 00:25:27;;;;;;;8.82;3.10;;;;;;;21.05;63.35;100814.84;5075627;28;20035;-79
2022/09/08 00:27:52;;;;;;;11.48;3.50;;;;;;;20.81;64.29;100821.91;5075942;28;20044;-80
2022/09/08 00:30:18;;;;;;;9.48;3.53;;;;;;;20.61;66.51;100819.88;5075577;28;20037;-80
2022/09/08 00:32:43;;;;;;;7.85;2.97;;;;;;;20.39;66.78;100802.63;5075766;28;20116;-81
2022/09/08 00:35:14;;;;;;;9.68;3.00;;;;;;;20.44;67.02;100796.19;5075377;28;20137;-80
2022/09/08 00:37:42;;;;;;;9.95;3.30;;;;;;;20.50;67.11;100809.44;5075635;28;20037;-80
2022/09/08 00:40:09;;;;;;;10.88;3.38;;;;;;;20.53;67.75;100802.22;5075818;28;20036;-80
2022/09/08 00:42:34;;;;;;;8.32;3.00;;;;;;;20.53;67.85;100803.09;5057314;28;20043;-79
2022/09/08 00:45:00;;;;;;;7.75;3.15;;;;;;;20.40;68.54;100799.00;5075488;28;20028;-79
2022/09/08 00:47:43;;;;;;;10.68;3.28;;;;;;;20.46;67.28;100788.06;5075451;28;20024;-78
2022/09/08 00:50:22;;;;;;;7.25;3.20;;;;;;;20.30;68.33;100760.84;5075486;28;20043;-79
2022/09/08 00:52:52;;;;;;;14.43;3.58;;;;;;;20.19;69.15;100765.66;5075312;28;20055;-79
2022/09/08 00:55:20;;;;;;;8.07;3.38;;;;;;;20.06;69.16;100775.88;5075139;28;20034;-80
2022/09/08 00:57:46;;;;;;;9.05;3.55;;;;;;;19.89;70.30;100764.75;5081290;28;20181;-79
2022/09/08 01:00:14;;;;;;;9.45;3.58;;;;;;;19.95;70.09;100757.41;5095291;28;20138;-79
2022/09/08 01:02:39;;;;;;;9.63;3.22;;;;;;;19.98;70.10;100751.06;5095327;28;20510;-79
2022/09/08 01:05:12;;;;;;;10.98;3.47;;;;;;;20.14;69.41;100752.38;5095256;28;20110;-80
2022/09/08 01:14:09;;;;;;;9.68;3.50;;;;;;;20.12;69.79;100745.28;4970312;28;20062;-80
2022/09/08 01:16:41;;;;;;;7.85;3.10;;;;;;;20.08;70.17;100749.88;5052638;28;20523;-80
2022/09/08 01:19:18;;;;;;;10.80;3.50;;;;;;;19.99;69.87;100759.06;5095405;28;20107;-79
2022/09/08 01:21:52;;;;;;;10.10;3.45;;;;;;;19.98;69.96;100751.94;5094572;28;20062;-80
2022/09/08 01:24:18;;;;;;;10.32;3.67;;;;;;;19.99;70.72;100744.78;5095439;28;20024;-79
2022/09/08 01:27:09;;;;;;;8.40;3.40;;;;;;;19.99;70.80;100739.41;5095146;28;20458;-80
2022/09/08 01:29:36;;;;;;;9.68;3.40;;;;;;;19.96;71.27;100727.00;5095007;28;20039;-79
2022/09/08 01:32:03;;;;;;;9.32;3.28;;;;;;;19.96;71.67;100721.63;5094681;28;20063;-79
2022/09/08 01:34:38;;;;;;;9.25;3.38;;;;;;;19.97;71.26;100717.13;5094809;28;20077;-79
2022/09/08 01:37:03;;;;;;;8.40;3.30;;;;;;;20.03;72.52;100725.00;5095086;28;20397;-79
2022/09/08 01:39:29;;;;;;;10.05;3.53;;;;;;;20.07;72.03;100732.03;5094604;28;20035;-79
2022/09/08 01:41:54;;;;;;;10.23;3.30;;;;;;;20.06;72.01;100729.41;5094672;28;20036;-79
2022/09/08 01:44:20;;;;;;;9.68;3.15;;;;;;;20.05;71.81;100739.25;5094300;28;20032;-80
2022/09/08 01:46:45;;;;;;;8.90;3.22;;;;;;;19.95;72.53;100740.44;5094608;28;20114;-80
2022/09/08 01:49:11;;;;;;;10.13;3.75;;;;;;;19.84;73.04;100738.06;5076135;28;20036;-81
2022/09/08 01:51:36;;;;;;;9.32;3.25;;;;;;;19.79;73.34;100718.56;5094553;28;20060;-80
2022/09/08 01:54:02;;;;;;;11.95;3.85;;;;;;;19.90;72.70;100718.22;5094083;28;20041;-80
2022/09/08 01:56:27;;;;;;;14.18;4.80;;;;;;;19.80;72.42;100695.31;5094499;28;20082;-80
2022/09/08 01:58:52;;;;;;;10.63;4.03;;;;;;;19.83;73.06;100704.16;5093925;28;20043;-82
2022/09/08 02:01:17;;;;;;;7.85;3.70;;;;;;;19.73;72.94;100702.63;5094347;28;20040;-81
2022/09/08 02:03:43;;;;;;;9.13;3.80;;;;;;;19.85;72.71;100710.31;5094312;28;20028;-82
2022/09/08 02:06:09;;;;;;;9.35;3.50;;;;;;;19.95;71.95;100689.47;5093929;28;20036;-81
2022/09/08 02:08:34;;;;;;;9.65;3.50;;;;;;;19.84;72.40;100686.25;5094021;28;20385;-82
2022/09/08 02:11:00;;;;;;;10.27;3.50;;;;;;;19.77;72.71;100673.00;5093868;28;20114;-81
2022/09/08 02:13:26;;;;;;;10.95;3.22;;;;;;;19.73;72.92;100675.84;5093950;28;20109;-81
2022/09/08 02:16:06;;;;;;;11.10;3.40;;;;;;;19.74;72.59;100689.22;5094074;28;20040;-81
2022/09/08 02:18:32;;;;;;;10.98;3.17;;;;;;;19.82;72.03;100686.28;5094060;28;20481;-82
2022/09/08 02:21:03;;;;;;;11.55;3.38;;;;;;;19.79;71.73;100683.72;5094039;28;20059;-82
2022/09/08 02:23:28;;;;;;;7.63;3.10;;;;;;;19.88;71.48;100678.06;5094191;28;20039;-82
2022/09/08 02:25:54;;;;;;;8.98;3.03;;;;;;;19.87;71.96;100670.03;5093374;28;20032;-82
2022/09/08 02:28:20;;;;;;;8.45;3.28;;;;;;;19.84;72.19;100665.69;5093823;28;20028;-83
2022/09/08 02:30:45;;;;;;;8.82;3.30;;;;;;;19.85;71.94;100663.88;5093674;28;20051;-81
2022/09/08 02:33:10;;;;;;;6.07;3.13;;;;;;;19.69;72.33;100633.94;5093849;28;20078;-81
2022/09/08 02:35:36;;;;;;;9.68;3.22;;;;;;;19.92;71.94;100663.63;5075595;28;20040;-81
2022/09/08 02:38:01;;;;;;;11.63;3.35;;;;;;;19.88;71.98;100661.97;5093597;28;20032;-81
2022/09/08 02:40:26;;;;;;;8.45;3.25;;;;;;;19.63;73.09;100661.81;5093539;28;20039;-81
2022/09/08 02:42:53;;;;;;;10.13;3.30;;;;;;;19.49;73.94;100680.09;5075637;28;20389;-81
2022/09/08 02:45:18;;;;;;;7.47;3.20;;;;;;;19.32;74.60;100680.56;5093453;28;20457;-81
2022/09/08 02:47:44;;;;;;;10.55;3.53;;;;;;;19.27;74.66;100680.69;5093418;28;20039;-81
2022/09/08 02:50:09;;;;;;;8.82;4.05;;;;;;;19.24;75.10;100683.44;5093303;28;20136;-80
2022/09/08 02:52:35;;;;;;;8.63;3.50;;;;;;;19.44;74.73;100687.34;5093227;28;20493;-80
2022/09/08 02:55:00;;;;;;;9.35;4.07;;;;;;;19.36;74.44;100682.25;5093049;28;20044;-80
2022/09/08 02:57:26;;;;;;;7.80;3.67;;;;;;;19.29;74.76;100677.09;5093028;28;20032;-80
2022/09/08 02:59:51;;;;;;;8.88;4.03;;;;;;;19.17;75.21;100667.59;5093711;28;20055;-83
2022/09/08 03:02:17;;;;;;;9.15;3.75;;;;;;;19.23;75.10;100671.00;5093240;28;20043;-82
2022/09/08 03:04:42;;;;;;;8.77;3.70;;;;;;;19.22;75.24;100653.13;5093136;28;20085;-82
2022/09/08 03:07:08;;;;;;;9.50;3.90;;;;;;;19.29;75.34;100685.13;5093082;28;20031;-81
2022/09/08 03:09:33;;;;;;;8.05;3.60;;;;;;;19.29;74.78;100682.44;5093016;28;20032;-81
2022/09/08 03:11:58;;;;;;;7.07;3.65;;;;;;;19.21;74.98;100671.94;5093066;28;20032;-82
2022/09/08 03:14:24;;;;;;;9.38;3.55;;;;;;;19.26;75.00;100675.38;5093377;28;20465;-82
2022/09/08 03:16:49;;;;;;;9.93;3.72;;;;;;;19.15;75.38;100680.16;5093291;28;20036;-82
2022/09/08 03:19:14;;;;;;;9.15;3.78;;;;;;;19.07;76.31;100688.38;5075011;28;20062;-81
2022/09/08 03:21:40;;;;;;;7.38;3.70;;;;;;;18.90;76.26;100672.78;5093129;28;20544;-81
2022/09/08 03:24:05;;;;;;;8.30;3.65;;;;;;;18.93;76.44;100679.84;5092887;28;20428;-81
2022/09/08 03:26:31;;;;;;;6.72;3.38;;;;;;;18.81;77.08;100672.13;5092831;28;20496;-81
2022/09/08 03:28:56;;;;;;;8.07;3.65;;;;;;;18.71;76.15;100647.38;5092865;28;20032;-81
2022/09/08 03:31:22;;;;;;;5.82;3.10;;;;;;;18.89;76.53;100673.69;5093266;28;20047;-81
2022/09/08 03:33:47;;;;;;;9.50;3.50;;;;;;;18.94;75.76;100682.47;5093115;28;20032;-81
2022/09/08 03:36:14;;;;;;;8.50;2.97;;;;;;;18.89;75.53;100665.66;5093104;28;20466;-81
2022/09/08 03:38:40;;;;;;;9.02;3.30;;;;;;;18.80;75.67;100676.63;5093025;28;20032;-81
2022/09/08 03:41:13;;;;;;;8.55;3.20;;;;;;;18.72;76.01;100687.50;5092760;28;20460;-81
2022/09/08 03:43:48;;;;;;;6.78;3.15;;;;;;;18.59;77.15;100706.56;5093236;28;20444;-80
2022/09/08 03:46:14;;;;;;;9.52;3.45;;;;;;;18.36;77.58;100697.28;5096608;28;20035;-81
2022/09/08 03:48:40;;;;;;;9.93;3.58;;;;;;;18.25;77.86;100697.53;5096867;28;20024;-81
2022/09/08 03:51:11;;;;;;;9.02;3.17;;;;;;;18.31;77.60;100695.63;5096929;28;20081;-81
2022/09/08 03:53:36;;;;;;;9.73;3.13;;;;;;;18.38;76.91;100676.72;5097066;28;20039;-82
2022/09/08 03:56:05;;;;;;;7.82;3.30;;;;;;;18.48;77.07;100678.25;5096555;28;20032;-82
2022/09/08 03:58:31;;;;;;;6.00;3.10;;;;;;;18.49;77.12;100684.47;5096672;28;20054;-82
2022/09/08 04:00:56;;;;;;;8.18;3.40;;;;;;;18.52;77.19;100665.69;5096853;28;20111;-82
2022/09/08 04:03:21;;;;;;;7.07;3.08;;;;;;;18.53;76.18;100648.69;5078532;28;20036;-81
2022/09/08 04:05:47;;;;;;;6.22;3.28;;;;;;;18.48;76.63;100664.88;5078478;28;20074;-81
2022/09/08 04:08:12;;;;;;;4.88;3.13;;;;;;;18.46;76.93;100664.06;5096299;28;20063;-81
2022/09/08 04:10:42;;;;;;;7.43;3.28;;;;;;;18.32;77.79;100647.44;5096508;28;20385;-81
2022/09/08 04:13:07;;;;;;;6.65;2.92;;;;;;;18.49;76.52;100671.09;5096355;28;20074;-81
2022/09/08 04:15:32;;;;;;;7.35;3.10;;;;;;;18.31;77.10;100648.34;5096441;28;20032;-81
2022/09/08 04:17:58;;;;;;;8.80;3.08;;;;;;;18.20;77.34;100653.06;5096260;28;20062;-81
2022/09/08 04:20:24;;;;;;;5.05;2.65;;;;;;;18.23;77.47;100672.59;5096247;28;20032;-80
2022/09/08 04:22:50;;;;;;;6.15;2.70;;;;;;;18.32;77.28;100686.69;5096304;28;20474;-81
2022/09/08 04:25:15;;;;;;;7.15;2.95;;;;;;;18.29;77.66;100692.13;5096008;28;20074;-81
2022/09/08 04:27:41;;;;;;;7.05;3.00;;;;;;;18.19;77.74;100686.97;5096221;28;20511;-81
2022/09/08 04:30:07;;;;;;;6.30;2.72;;;;;;;18.19;77.76;100689.63;5096117;28;20454;-81
2022/09/08 04:32:34;;;;;;;6.15;2.78;;;;;;;18.11;77.38;100678.25;5095860;28;20119;-81
2022/09/08 04:34:59;;;;;;;7.30;2.90;;;;;;;18.16;78.49;100686.19;5095806;28;20085;-81
2022/09/08 04:37:25;;;;;;;7.53;3.15;;;;;;;18.15;78.04;100673.69;5095917;28;20032;-82
2022/09/08 04:39:50;;;;;;;7.30;3.25;;;;;;;18.19;78.72;100686.97;5096156;28;20293;-81
2022/09/08 04:42:16;;;;;;;8.63;3.25;;;;;;;18.16;78.18;100687.06;5095788;28;20028;-81
2022/09/08 04:44:41;;;;;;;8.70;3.10;;;;;;;18.21;78.26;100693.19;5095732;28;20429;-81
2022/09/08 04:47:07;;;;;;;6.18;3.17;;;;;;;18.18;78.65;100698.59;5095608;28;20032;-81
2022/09/08 04:49:32;;;;;;;5.57;3.00;;;;;;;18.15;79.05;100685.28;5095915;28;20032;-81
2022/09/08 04:51:58;;;;;;;6.68;3.50;;;;;;;18.14;78.81;100685.31;5095654;28;20028;-81
2022/09/08 04:54:23;;;;;;;8.50;3.22;;;;;;;18.21;78.91;100700.31;5095565;28;20043;-81
2022/09/08 04:56:49;;;;;;;7.20;3.00;;;;;;;18.19;78.90;100702.13;5094232;28;20036;-81
2022/09/08 04:59:15;;;;;;;6.47;2.95;;;;;;;18.26;78.38;100699.28;5077244;28;20555;-81
2022/09/08 05:01:40;;;;;;;9.75;3.08;;;;;;;18.16;79.05;100691.53;5095398;28;20048;-81
2022/09/08 05:04:06;;;;;;;11.75;3.20;;;;;;;18.19;78.93;100694.13;5095346;28;20031;-81
2022/09/08 05:06:33;;;;;;;9.23;3.10;;;;;;;18.17;79.17;100702.19;5095454;28;20081;-81
2022/09/08 05:09:00;;;;;;;7.43;3.22;;;;;;;18.05;79.85;100715.81;5095279;28;20051;-81
2022/09/08 05:11:27;;;;;;;7.03;3.35;;;;;;;17.99;80.24;100707.94;5095081;28;20060;-81
2022/09/08 05:13:53;;;;;;;8.90;3.47;;;;;;;17.93;80.24;100708.94;5095268;28;20035;-81
2022/09/08 05:16:24;;;;;;;7.43;3.22;;;;;;;18.06;79.63;100701.53;5095462;28;20062;-81
2022/09/08 05:18:52;;;;;;;7.40;3.60;;;;;;;18.08;80.16;100706.88;5095111;28;20040;-81
2022/09/08 05:21:19;;;;;;;7.68;3.15;;;;;;;17.98;80.89;100709.72;5094805;28;20433;-81
2022/09/08 05:23:45;;;;;;;10.98;3.40;;;;;;;17.80;81.25;100685.19;5094993;28;20046;-81
2022/09/08 05:26:14;;;;;;;8.02;3.33;;;;;;;17.93;80.77;100700.03;5094920;28;20035;-81
2022/09/08 05:28:41;;;;;;;9.60;3.55;;;;;;;17.92;81.65;100711.66;5095146;28;20530;-82
2022/09/08 05:31:07;;;;;;;10.57;3.75;;;;;;;17.86;81.48;100714.44;5094547;28;20023;-81
2022/09/08 05:33:33;;;;;;;9.00;3.80;;;;;;;17.89;81.81;100712.59;5076298;28;20139;-81
2022/09/08 05:35:59;;;;;;;7.65;3.50;;;;;;;17.88;81.70;100696.59;5094734;28;20484;-81
2022/09/08 05:38:25;;;;;;;10.75;3.65;;;;;;;17.93;81.42;100702.72;5094438;28;20066;-81
2022/09/08 05:40:50;;;;;;;11.25;3.80;;;;;;;18.02;81.14;100700.72;5094712;28;20039;-81
2022/09/08 05:43:17;;;;;;;10.15;4.22;;;;;;;17.94;81.54;100686.66;5076077;28;20028;-80
2022/09/08 05:45:48;;;;;;;10.05;4.53;;;;;;;18.02;80.94;100686.47;5094112;28;20028;-80
2022/09/08 05:48:13;;;;;;;8.00;4.28;;;;;;;18.14;80.93;100688.88;5094063;28;20032;-80
2022/09/08 05:50:44;;;;;;;9.35;4.70;;;;;;;18.14;80.72;100701.38;5094102;28;20158;-81
2022/09/08 05:53:09;;;;;;;11.88;4.50;;;;;;;18.04;81.51;100705.19;5094433;28;20032;-80
2022/09/08 05:55:35;;;;;;;9.88;4.35;;;;;;;17.96;81.52;100708.00;5093756;28;20036;-80
2022/09/08 05:58:00;;;;;;;9.95;4.40;;;;;;;17.90;82.11;100708.13;5093942;28;20052;-81
2022/09/08 06:00:26;;;;;;;9.43;4.30;;;;;;;17.82;82.40;100700.28;5094128;28;20031;-79
2022/09/08 06:02:52;;;;;;;9.85;4.60;;;;;;;17.80;82.69;100707.44;5093626;28;20031;-80
2022/09/08 06:05:21;;;;;;;9.30;4.30;;;;;;;17.81;82.40;100701.19;5093785;28;20157;-81
2022/09/08 06:07:47;;;;;;;11.00;4.30;;;;;;;17.96;82.10;100711.56;5093568;28;20036;-80
2022/09/08 06:10:14;;;;;;;8.48;4.57;;;;;;;17.89;82.58;100711.72;5093732;28;20081;-80
2022/09/08 06:12:39;;;;;;;10.93;4.60;;;;;;;17.87;82.82;100708.22;5093453;28;20036;-79
2022/09/08 06:15:05;;;;;;;10.20;4.93;;;;;;;17.84;83.11;100700.25;5093801;28;20047;-80
2022/09/08 06:17:31;;;;;;;8.57;4.80;;;;;;;17.80;83.16;100710.13;5093218;28;20123;-79
2022/09/08 06:19:57;;;;;;;10.80;5.00;;;;;;;17.92;82.80;100709.00;5093575;28;20477;-79
2022/09/08 06:22:23;;;;;;;9.00;4.78;;;;;;;17.93;82.30;100695.56;5093945;28;20123;-81
2022/09/08 06:24:48;;;;;;;9.80;5.20;;;;;;;17.86;83.13;100707.34;5093126;28;20032;-82
2022/09/08 06:27:26;;;;;;;14.02;5.22;;;;;;;17.85;83.25;100713.56;5093473;28;20032;-82
2022/09/08 06:30:14;;;;;;;9.35;5.20;;;;;;;17.77;83.27;100705.75;5093062;28;20096;-83
2022/09/08 06:33:07;;;;;;;10.75;5.30;;;;;;;17.67;83.73;100676.53;5093354;28;20039;-82
2022/09/08 06:35:42;;;;;;;8.25;4.80;;;;;;;17.76;83.99;100708.44;5083574;28;20469;-83
2022/09/08 06:38:22;;;;;;;10.38;4.78;;;;;;;17.83;83.91;100725.22;5093081;28;20067;-82
2022/09/08 06:40:52;;;;;;;13.10;5.15;;;;;;;17.72;84.46;100709.38;5093337;28;20020;-81
2022/09/08 06:43:27;;;;;;;11.88;5.45;;;;;;;17.77;84.17;100715.53;5093270;28;20081;-81
2022/09/08 06:45:55;;;;;;;8.32;4.72;;;;;;;17.64;84.32;100713.97;5092899;28;20081;-81
2022/09/08 06:48:31;;;;;;;12.43;5.20;;;;;;;17.62;84.36;100711.34;5092964;28;20373;-82
2022/09/08 06:50:56;;;;;;;9.35;5.20;;;;;;;17.72;85.11;100728.94;5093155;28;20440;-80
2022/09/08 06:53:24;;;;;;;8.40;5.43;;;;;;;17.72;85.58;100720.94;5074987;28;20465;-80
2022/09/08 06:56:01;;;;;;;14.15;5.03;;;;;;;17.66;85.42;100731.75;5092862;28;20115;-81
2022/09/08 06:58:31;;;;;;;9.65;5.10;;;;;;;17.53;86.33;100699.06;5093077;28;20462;-79
2022/09/08 07:01:09;;;;;;;10.90;5.15;;;;;;;17.66;85.23;100720.19;5092736;28;20043;-80
2022/09/08 07:04:05;;;;;;;8.75;5.13;;;;;;;17.73;85.56;100724.50;5092953;28;20036;-80
2022/09/08 07:06:39;;;;;;;11.88;5.28;;;;;;;17.65;86.05;100710.44;5092924;28;20062;-81
2022/09/08 07:09:23;;;;;;;10.65;6.10;;;;;;;17.80;85.00;100727.97;5092842;28;20048;-81
2022/09/08 07:12:02;;;;;;;11.02;5.80;;;;;;;17.86;84.81;100731.41;5092860;28;20111;-80
2022/09/08 07:15:04;;;;;;;11.40;6.53;;;;;;;17.94;84.48;100724.09;5093025;28;20050;-81
2022/09/08 07:17:40;;;;;;;12.40;6.30;;;;;;;17.95;84.94;100723.19;5092435;28;20027;-79
2022/09/08 07:20:10;;;;;;;11.05;6.78;;;;;;;17.83;85.80;100718.09;5094374;28;20028;-80
2022/09/08 07:22:49;;;;;;;12.00;5.97;;;;;;;17.95;84.71;100723.19;5096957;28;20036;-81
2022/09/08 07:25:24;;;;;;;9.90;6.22;;;;;;;17.98;84.50;100730.22;5096763;28;20039;-81
2022/09/08 07:28:01;;;;;;;12.10;5.95;;;;;;;18.01;83.94;100723.03;5096604;28;20024;-81
2022/09/08 07:30:26;;;;;;;12.10;5.70;;;;;;;18.07;83.48;100730.03;5096831;28;20086;-79
2022/09/08 07:32:58;;;;;;;9.45;6.05;;;;;;;18.07;83.88;100743.41;5096933;28;20525;-80
2022/09/08 07:36:28;;;;;;;10.00;5.97;;;;;;;17.98;83.67;100712.41;5096708;28;20027;-80
2022/09/08 07:38:56;;;;;;;12.23;6.25;;;;;;;18.03;83.24;100736.38;4987705;28;20042;-81
2022/09/08 07:41:45;;;;;;;13.50;6.47;;;;;;;18.00;83.61;100715.94;4994919;28;20093;-80
2022/09/08 07:44:15;;;;;;;10.95;6.18;;;;;;;18.08;83.37;100717.56;5059137;28;20455;-82
2022/09/08 07:46:58;;;;;;;10.52;6.45;;;;;;;18.13;83.48;100721.88;5096458;28;20099;-81
2022/09/08 07:49:38;;;;;;;12.13;6.38;;;;;;;18.21;83.33;100732.41;5096509;28;20477;-81
2022/09/08 07:52:25;;;;;;;10.02;6.53;;;;;;;18.16;82.90;100721.81;5096401;28;20024;-79
2022/09/08 07:55:02;;;;;;;10.45;6.45;;;;;;;18.26;83.53;100735.88;5096410;28;20028;-81
2022/09/08 07:57:40;;;;;;;10.85;6.75;;;;;;;18.36;83.73;100737.41;5096219;28;20024;-79
2022/09/08 08:00:19;;;;;;;11.55;7.00;;;;;;;18.51;83.62;100738.84;5096264;28;20035;-80
2022/09/08 08:03:10;;;;;;;10.90;6.50;;;;;;;18.43;81.97;100731.00;5096262;28;20024;-80
2022/09/08 08:05:51;;;;;;;9.30;6.15;;;;;;;18.52;82.00;100740.59;5096110;28;20025;-80
2022/09/08 08:08:35;;;;;;;10.43;6.00;;;;;;;18.55;80.76;100745.03;5096274;28;20459;-80
2022/09/08 08:11:20;;;;;;;12.98;6.72;;;;;;;18.45;79.87;100747.00;5096174;28;20024;-80
2022/09/08 08:13:54;;;;;;;11.30;6.88;;;;;;;18.44;79.63;100746.13;5095949;28;20027;-81
2022/09/08 08:16:41;;;;;;;10.50;6.45;;;;;;;18.48;80.09;100738.91;5095699;28;20043;-80
2022/09/08 08:19:17;;;;;;;10.65;6.93;;;;;;;18.58;79.21;100743.13;5096004;28;20032;-81
2022/09/08 08:21:59;;;;;;;9.35;6.28;;;;;;;18.68;79.01;100750.03;5095727;28;20032;-86
2022/09/08 08:24:34;;;;;;;10.57;6.43;;;;;;;18.72;78.62;100749.09;5095563;28;20081;-80
2022/09/08 08:27:19;;;;;;;8.68;6.25;;;;;;;18.73;78.41;100747.28;5095507;28;20027;-80
2022/09/08 08:30:15;;;;;;;9.32;6.88;;;;;;;18.66;78.88;100734.91;5095577;28;20028;-80
2022/09/08 08:32:46;;;;;;;10.02;5.32;;;;;;;18.66;76.70;100727.75;5095544;28;20430;-80
2022/09/08 08:35:21;;;;;;;9.93;5.00;;;;;;;18.66;75.69;100748.31;5095625;28;20020;-80
2022/09/08 08:37:49;;;;;;;7.05;4.95;;;;;;;18.51;76.53;100747.75;5095610;28;20047;-80
2022/09/08 08:41:04;;;;;;;9.02;4.80;;;;;;;18.71;75.80;100754.44;5095430;28;20135;-81
2022/09/08 08:43:33;;;;;;;8.38;4.60;;;;;;;18.98;75.54;100745.75;5077399;28;20044;-80
2022/09/08 08:46:17;;;;;;;6.63;4.20;;;;;;;19.02;74.27;100746.56;5095467;28;20028;-80
2022/09/08 08:48:45;;;;;;;7.38;4.38;;;;;;;18.86;75.25;100753.22;5095178;28;20396;-80
2022/09/08 08:51:38;;;;;;;9.48;4.18;;;;;;;18.75;75.34;100764.16;5095498;28;20031;-80
2022/09/08 08:54:32;;;;;;;7.53;3.67;;;;;;;18.70;74.15;100744.66;5095259;28;20028;-79
2022/09/08 08:57:15;;;;;;;6.13;3.70;;;;;;;19.02;74.61;100758.16;5094996;28;20077;-80
2022/09/08 09:00:24;;;;;;;7.20;4.00;;;;;;;19.46;73.41;100752.53;5095290;28;20056;-80
2022/09/08 09:03:16;;;;;;;7.95;4.45;;;;;;;19.89;73.87;100756.72;4993226;28;20171;-80
2022/09/08 09:06:27;;;;;;;8.68;4.15;;;;;;;19.99;72.19;100750.13;4993009;28;20042;-80
2022/09/08 09:09:30;;;;;;;6.72;3.60;;;;;;;19.93;71.95;100755.69;5093919;28;20115;-80
2022/09/08 09:12:11;;;;;;;7.82;3.40;;;;;;;20.16;71.52;100752.31;5095028;28;20032;-80
2022/09/08 09:15:01;;;;;;;7.75;3.67;;;;;;;20.41;71.10;100742.59;5094541;28;20382;-80
2022/09/08 09:17:45;;;;;;;6.85;3.00;;;;;;;20.60;70.30;100740.25;5076766;28;20482;-78
2022/09/08 09:20:19;;;;;;;7.25;2.80;;;;;;;20.94;68.22;100744.47;5094686;28;20040;-80
2022/09/08 09:22:48;;;;;;;9.52;2.80;;;;;;;21.11;67.73;100738.53;5094645;28;20032;-80
2022/09/08 09:25:30;;;;;;;5.13;2.60;;;;;;;21.31;67.81;100732.47;5094339;28;20038;-80
2022/09/08 09:28:08;;;;;;;7.88;2.70;;;;;;;21.32;66.18;100742.31;5094600;28;20028;-80
2022/09/08 09:30:51;;;;;;;9.13;2.70;;;;;;;21.08;66.25;100747.59;5094343;28;20436;-80
2022/09/08 09:33:28;;;;;;;5.32;2.40;;;;;;;20.98;66.16;100746.13;5094542;28;20030;-80
2022/09/08 09:35:57;;;;;;;6.00;2.67;;;;;;;20.83;65.58;100746.66;5094468;28;20054;-80
2022/09/08 09:38:25;;;;;;;5.85;2.55;;;;;;;20.86;66.34;100749.25;5094351;28;20032;-81
2022/09/08 09:40:59;;;;;;;9.57;2.80;;;;;;;20.86;65.37;100746.56;5094613;28;20028;-81
2022/09/08 09:43:49;;;;;;;6.22;2.60;;;;;;;20.94;66.53;100737.31;5093549;28;20040;-80
2022/09/08 09:46:36;;;;;;;7.35;2.30;;;;;;;21.04;65.79;100737.88;5094319;28;20065;-80
2022/09/08 09:49:13;;;;;;;7.85;2.80;;;;;;;21.36;66.09;100741.28;5094083;28;20051;-80
2022/09/08 09:51:46;;;;;;;6.82;2.33;;;;;;;21.72;64.03;100747.16;5094053;28;20040;-79
2022/09/08 09:54:25;;;;;;;5.30;2.10;;;;;;;21.92;61.52;100738.31;5094042;28;20028;-79
2022/09/08 09:56:59;;;;;;;7.00;2.40;;;;;;;22.00;60.92;100746.97;5094164;28;20055;-80
2022/09/08 09:59:49;;;;;;;7.78;2.35;;;;;;;21.94;61.62;100745.41;5094077;28;20473;-80
2022/09/08 10:02:39;;;;;;;7.82;2.15;;;;;;;21.94;58.99;100758.84;5094239;28;20062;-79
2022/09/08 10:05:21;;;;;;;8.23;2.40;;;;;;;21.79;58.92;100737.03;5093930;28;20028;-79
2022/09/08 10:08:08;;;;;;;5.90;2.30;;;;;;;21.55;60.65;100747.75;5096072;28;20039;-80
2022/09/08 10:10:42;;;;;;;8.85;2.50;;;;;;;21.58;61.23;100726.13;5079346;28;20500;-79
2022/09/08 10:13:40;;;;;;;6.32;2.40;;;;;;;22.03;61.05;100732.53;5095580;28;20111;-79
2022/09/08 10:16:40;;;;;;;7.32;2.50;;;;;;;22.37;58.21;100749.16;5093815;28;20031;-79
2022/09/08 10:19:18;;;;;;;10.38;2.50;;;;;;;22.28;58.06;100749.53;5038630;28;20047;-79
2022/09/08 10:22:09;;;;;;;7.22;2.40;;;;;;;22.48;58.33;100748.72;5094237;28;20539;-79
2022/09/08 10:25:21;;;;;;;8.25;2.20;;;;;;;22.71;58.21;100728.94;5093404;28;20039;-79
2022/09/08 10:28:14;;;;;;;7.20;2.33;;;;;;;23.07;56.56;100737.31;5093326;28;20111;-79
2022/09/08 10:31:04;;;;;;;8.48;2.35;;;;;;;22.93;56.05;100745.13;5093379;28;20074;-79
2022/09/08 10:33:35;;;;;;;6.45;2.30;;;;;;;23.22;55.59;100741.19;5093517;28;20028;-79
2022/09/08 10:36:06;;;;;;;5.63;2.30;;;;;;;23.20;54.25;100752.03;5075086;28;20424;-79
2022/09/08 10:38:53;;;;;;;6.82;2.40;;;;;;;22.99;55.73;100745.72;5093201;28;20038;-79
2022/09/08 10:41:56;;;;;;;8.65;2.20;;;;;;;22.91;55.73;100741.59;5093198;28;20036;-80
2022/09/08 10:44:33;;;;;;;7.85;2.30;;;;;;;23.04;56.08;100741.97;5093169;28;20032;-79
2022/09/08 10:47:14;;;;;;;9.32;2.60;;;;;;;23.00;54.43;100738.53;5093000;28;20032;-79
2022/09/08 10:49:51;;;;;;;6.47;2.08;;;;;;;23.06;54.76;100743.66;5093071;28;20111;-79
2022/09/08 10:52:25;;;;;;;6.18;2.13;;;;;;;22.84;53.79;100745.47;5093210;28;20027;-85
2022/09/08 10:55:32;;;;;;;4.82;2.13;;;;;;;22.67;54.78;100747.03;5091970;28;20092;-82
2022/09/08 10:58:04;;;;;;;6.85;2.38;;;;;;;22.70;55.99;100735.28;5092586;28;20481;-85
2022/09/08 11:00:46;;;;;;;7.07;2.47;;;;;;;22.63;56.24;100721.16;5093291;28;20028;-84
2022/09/08 11:03:30;;;;;;;6.40;2.13;;;;;;;22.96;54.85;100737.78;5092996;28;20031;-79
2022/09/08 11:06:06;;;;;;;7.80;2.53;;;;;;;23.19;54.99;100735.91;5093326;28;20103;-83
2022/09/08 11:08:56;;;;;;;5.90;2.28;;;;;;;23.27;54.51;100728.38;5092641;28;20443;-81
2022/09/08 11:11:40;;;;;;;7.65;2.45;;;;;;;23.23;54.58;100749.19;5092755;28;20049;-82
2022/09/08 11:14:24;;;;;;;9.25;2.35;;;;;;;22.94;54.52;100746.88;5074669;28;20078;-82
2022/09/08 11:16:55;;;;;;;7.35;2.35;;;;;;;22.28;56.55;100733.38;5092607;28;20040;-84
2022/09/08 11:20:07;;;;;;;7.57;2.78;;;;;;;22.22;58.24;100736.28;5092670;28;20071;-82
2022/09/08 11:22:50;;;;;;;7.97;2.45;;;;;;;22.31;58.64;100706.34;5082955;28;20127;-82
2022/09/08 11:25:42;;;;;;;8.85;2.65;;;;;;;22.64;58.38;100735.50;5092247;28;20020;-83
2022/09/08 11:28:26;;;;;;;7.03;2.25;;;;;;;22.88;56.97;100734.50;5092747;28;20047;-83
2022/09/08 11:31:13;;;;;;;8.55;2.40;;;;;;;22.85;57.16;100728.38;5092778;28;20085;-82
2022/09/08 11:33:58;;;;;;;7.22;2.35;;;;;;;22.70;56.42;100713.72;5092633;28;20077;-83
2022/09/08 11:36:42;;;;;;;8.23;2.53;;;;;;;22.41;57.49;100723.88;5092770;28;20353;-83
2022/09/08 11:39:45;;;;;;;6.00;2.40;;;;;;;22.16;57.45;100705.13;5092800;28;20028;-83
2022/09/08 11:42:19;;;;;;;;;;;;;;;22.19;57.81;100721.16;5092966;28;20469;-77
2022/09/08 11:44:55;;;;;;;8.20;2.53;;;;;;;21.92;57.21;100704.22;5092969;28;19908;-77
2022/09/08 11:47:26;;;;;;;5.97;2.40;;;;;;;21.92;56.19;100716.78;5092375;28;20020;-77
2022/09/08 11:50:03;;;;;;;5.45;2.50;;;;;;;21.82;57.01;100712.72;5092687;28;20032;-76
2022/09/08 11:52:53;;;;;;;6.50;2.42;;;;;;;22.06;57.08;100714.47;5092749;28;20028;-79
2022/09/08 11:55:46;;;;;;;6.35;2.63;;;;;;;22.17;56.14;100708.69;5092264;28;20035;-79
2022/09/08 11:58:34;;;;;;;7.60;2.60;;;;;;;22.13;54.60;100709.75;5092320;28;20140;-79
2022/09/08 12:01:38;;;;;;;8.80;2.60;;;;;;;22.03;54.07;100714.56;5092636;28;20081;-79